createdAt,value
2022-12-16T00:00:20.728Z,56.67
2022-12-16T00:02:55.525Z,70.40
2022-12-16T00:05:30.855Z,66.57
2022-12-16T00:08:31.727Z,55.40
2022-12-16T00:11:10.449Z,65.18
2022-12-16T00:13:46.700Z,66.05
2022-12-16T00:16:19.613Z,68.40
2022-12-16T00:19:01.650Z,67.82
2022-12-16T00:21:33.520Z,64.18
2022-12-16T00:24:17.393Z,55.77
2022-12-16T00:26:59.702Z,56.90
2022-12-16T00:29:38.681Z,57.57
2022-12-16T00:32:12.902Z,54.10
2022-12-16T00:34:48.574Z,64.88
2022-12-16T00:37:22.480Z,65.10
2022-12-16T00:39:53.876Z,58.57
2022-12-16T00:42:26.198Z,69.60
2022-12-16T00:44:58.376Z,67.37
2022-12-16T00:47:38.556Z,73.03
2022-12-16T00:50:14.022Z,72.67
2022-12-16T00:52:55.432Z,64.83
2022-12-16T00:55:39.256Z,71.95
2022-12-16T00:58:21.135Z,69.68
2022-12-16T01:00:56.269Z,70.32
2022-12-16T01:03:27.497Z,63.72
2022-12-16T01:06:03.095Z,68.68
2022-12-16T01:08:36.144Z,60.47
2022-12-16T01:11:15.732Z,72.85
2022-12-16T01:13:50.795Z,69.18
2022-12-16T01:16:23.961Z,65.00
2022-12-16T01:18:56.664Z,68.97
2022-12-16T01:21:32.604Z,68.53
2022-12-16T01:24:06.085Z,59.60
2022-12-16T01:26:42.218Z,63.25
2022-12-16T01:29:19.497Z,65.50
2022-12-16T01:32:12.381Z,61.40
2022-12-16T01:34:55.264Z,65.22
2022-12-16T01:37:35.677Z,64.38
2022-12-16T01:40:17.647Z,58.70
2022-12-16T01:42:54.642Z,67.85
2022-12-16T01:45:40.409Z,63.85
2022-12-16T01:48:31.292Z,66.78
2022-12-16T01:51:13.188Z,64.68
2022-12-16T01:53:56.080Z,63.25
2022-12-16T01:56:37.950Z,60.33
2022-12-16T01:59:13.792Z,55.63
2022-12-16T02:01:52.903Z,63.97
2022-12-16T02:04:36.730Z,52.53
2022-12-16T02:07:08.484Z,53.50
2022-12-16T02:09:38.266Z,61.73
2022-12-16T02:12:32.609Z,62.33
2022-12-16T02:15:38.073Z,65.20
2022-12-16T02:18:22.175Z,51.83
2022-12-16T02:21:44.138Z,64.22
2022-12-16T02:25:11.749Z,59.75
2022-12-16T02:28:09.122Z,63.03
2022-12-16T02:31:27.835Z,63.03
2022-12-16T02:34:22.559Z,59.28
2022-12-16T02:37:10.368Z,60.97
2022-12-16T02:39:48.276Z,56.57
2022-12-16T02:42:32.765Z,53.20
2022-12-16T02:45:13.816Z,55.85
2022-12-16T02:47:51.102Z,47.03
2022-12-16T02:50:25.686Z,49.47
2022-12-16T02:53:25.304Z,44.53
2022-12-16T02:56:42.636Z,48.83
2022-12-16T02:59:28.226Z,47.35
2022-12-16T03:02:10.362Z,48.55
2022-12-16T03:04:54.452Z,45.47
2022-12-16T03:07:33.177Z,49.17
2022-12-16T03:10:15.562Z,39.92
2022-12-16T03:12:49.325Z,39.40
2022-12-16T03:15:26.735Z,34.43
2022-12-16T03:18:01.098Z,32.97
2022-12-16T03:20:48.324Z,31.43
2022-12-16T03:23:25.094Z,31.73
2022-12-16T03:26:12.876Z,34.05
2022-12-16T03:29:00.574Z,34.80
2022-12-16T03:31:39.672Z,35.13
2022-12-16T03:34:21.716Z,34.30
2022-12-16T03:37:25.091Z,27.30
2022-12-16T03:39:59.914Z,33.65
2022-12-16T03:42:32.258Z,33.83
2022-12-16T03:45:05.723Z,37.08
2022-12-16T03:47:38.791Z,39.50
2022-12-16T03:50:18.123Z,36.33
2022-12-16T03:53:15.761Z,44.95
2022-12-16T03:55:54.555Z,39.83
2022-12-16T03:58:28.301Z,40.63
2022-12-16T04:01:02.587Z,41.70
2022-12-16T04:03:34.425Z,38.88
2022-12-16T04:06:04.631Z,39.55
2022-12-16T04:08:38.011Z,32.87
2022-12-16T04:11:25.888Z,35.67
2022-12-16T04:14:14.175Z,34.57
2022-12-16T04:17:08.545Z,32.70
2022-12-16T04:20:12.135Z,36.97
2022-12-16T04:23:14.602Z,41.47
2022-12-16T04:26:04.770Z,34.07
2022-12-16T04:28:40.852Z,37.70
2022-12-16T04:31:16.492Z,37.60
2022-12-16T04:34:03.215Z,39.63
2022-12-16T04:36:53.297Z,37.75
2022-12-16T04:39:49.812Z,38.63
2022-12-16T04:42:42.179Z,41.67
2022-12-16T04:45:31.131Z,43.60
2022-12-16T04:48:18.350Z,38.03
2022-12-16T04:51:09.544Z,37.47
2022-12-16T04:53:58.643Z,37.33
2022-12-16T04:56:47.834Z,41.72
2022-12-16T04:59:37.005Z,41.72
2022-12-16T05:02:26.947Z,36.87
2022-12-16T05:05:14.784Z,43.33
2022-12-16T05:08:03.356Z,43.58
2022-12-16T05:10:49.839Z,44.08
2022-12-16T05:13:39.785Z,42.27
2022-12-16T05:16:43.646Z,41.63
2022-12-16T05:19:32.328Z,42.80
2022-12-16T05:22:24.224Z,38.17
2022-12-16T05:25:19.520Z,45.45
2022-12-16T05:28:14.846Z,38.77
2022-12-16T05:31:07.884Z,43.80
2022-12-16T05:34:12.759Z,47.60
2022-12-16T05:37:03.924Z,50.00
2022-12-16T05:39:51.993Z,61.05
2022-12-16T05:42:40.562Z,51.57
2022-12-16T05:45:31.974Z,58.80
2022-12-16T05:48:23.281Z,70.57
2022-12-16T05:51:20.949Z,71.90
2022-12-16T05:54:14.246Z,76.80
2022-12-16T05:57:00.695Z,68.17
2022-12-16T05:59:49.085Z,78.85
2022-12-16T06:02:42.444Z,86.53
2022-12-16T06:05:34.334Z,88.03
2022-12-16T06:08:24.555Z,76.40
2022-12-16T06:11:13.202Z,96.30
2022-12-16T06:14:02.303Z,94.25
2022-12-16T06:16:54.079Z,87.43
2022-12-16T06:19:41.722Z,80.73
2022-12-16T06:22:28.713Z,85.73
2022-12-16T06:25:34.228Z,86.23
2022-12-16T06:28:31.576Z,89.53
2022-12-16T06:31:20.208Z,108.22
2022-12-16T06:34:11.790Z,106.07
2022-12-16T06:36:59.750Z,111.15
2022-12-16T06:39:52.772Z,94.87
2022-12-16T06:45:57.257Z,109.20
2022-12-16T06:48:46.084Z,110.15
2022-12-16T06:51:51.014Z,103.32
2022-12-16T06:54:43.757Z,99.23
2022-12-16T06:57:32.865Z,96.17
2022-12-16T07:00:26.769Z,107.60
2022-12-16T07:03:20.115Z,102.38
2022-12-16T07:06:12.892Z,113.95
2022-12-16T07:09:05.615Z,113.43
2022-12-16T07:11:59.768Z,108.75
2022-12-16T07:14:48.928Z,93.77
2022-12-16T07:17:44.638Z,109.43
2022-12-16T07:20:47.351Z,109.75
2022-12-16T07:23:39.827Z,105.60
2022-12-16T07:26:33.994Z,95.40
2022-12-16T07:29:25.643Z,96.03
2022-12-16T07:32:16.915Z,109.28
2022-12-16T07:35:37.464Z,105.33
2022-12-16T07:38:29.502Z,118.03
2022-12-16T07:41:23.275Z,125.82
2022-12-16T07:44:15.788Z,126.53
2022-12-16T07:47:06.369Z,106.40
2022-12-16T07:49:56.491Z,125.50
2022-12-16T07:52:45.719Z,118.38
2022-12-16T07:55:34.777Z,103.82
2022-12-16T07:58:23.872Z,113.10
2022-12-16T08:01:15.065Z,102.50
2022-12-16T08:04:03.491Z,115.93
2022-12-16T08:06:51.330Z,99.87
2022-12-16T08:09:42.962Z,103.47
2022-12-16T08:12:32.016Z,94.23
2022-12-16T08:15:19.412Z,98.27
2022-12-16T08:18:09.157Z,104.43
2022-12-16T08:20:58.291Z,97.77
2022-12-16T08:23:46.757Z,104.60
2022-12-16T08:26:40.586Z,102.40
2022-12-16T08:29:45.931Z,104.23
2022-12-16T08:32:44.507Z,102.37
2022-12-16T08:35:35.013Z,104.47
2022-12-16T08:38:24.063Z,117.70
2022-12-16T08:41:17.604Z,106.40
2022-12-16T08:44:23.904Z,114.33
2022-12-16T08:47:11.930Z,118.67
2022-12-16T08:53:05.710Z,117.03
2022-12-16T08:59:11.038Z,128.83
2022-12-16T09:01:59.387Z,133.83
2022-12-16T09:04:46.832Z,139.03
2022-12-16T09:07:39.038Z,128.43
2022-12-16T09:10:26.879Z,141.83
2022-12-16T09:13:38.165Z,140.37
2022-12-16T09:16:31.372Z,142.37
2022-12-16T09:19:19.890Z,140.70
2022-12-16T09:22:10.505Z,142.37
2022-12-16T09:24:57.888Z,143.23
2022-12-16T09:27:44.092Z,152.37
2022-12-16T09:30:36.349Z,167.47
2022-12-16T09:33:25.879Z,160.87
2022-12-16T09:36:16.035Z,159.03
2022-12-16T09:39:04.929Z,150.33
2022-12-16T09:42:03.760Z,162.43
2022-12-16T09:45:36.013Z,156.10
2022-12-16T09:48:44.949Z,150.73
2022-12-16T09:51:39.428Z,159.30
2022-12-16T09:54:59.088Z,166.30
2022-12-16T09:57:49.872Z,168.63
2022-12-16T10:00:44.972Z,154.57
2022-12-16T10:03:42.685Z,166.47
2022-12-16T10:06:49.975Z,155.87
2022-12-16T10:09:50.590Z,158.53
2022-12-16T10:13:04.877Z,151.43
2022-12-16T10:16:24.139Z,143.70
2022-12-16T10:19:25.920Z,138.73
2022-12-16T10:22:29.924Z,142.63
2022-12-16T10:25:29.071Z,147.60
2022-12-16T10:28:40.648Z,159.73
2022-12-16T10:31:40.446Z,156.97
2022-12-16T10:34:52.033Z,153.17
2022-12-16T10:37:54.924Z,128.97
2022-12-16T10:40:56.707Z,156.60
2022-12-16T10:44:01.984Z,180.40
2022-12-16T10:46:56.283Z,205.53
2022-12-16T10:50:11.154Z,186.27
2022-12-16T10:53:06.943Z,195.93
2022-12-16T10:56:21.647Z,174.90
2022-12-16T10:59:15.181Z,177.80
2022-12-16T11:02:29.639Z,165.47
2022-12-16T11:05:43.009Z,145.33
2022-12-16T11:08:46.958Z,147.80
2022-12-16T11:11:42.043Z,147.70
2022-12-16T11:15:05.383Z,136.50
2022-12-16T11:17:53.941Z,175.50
2022-12-16T11:20:46.375Z,178.93
2022-12-16T11:23:41.784Z,175.03
2022-12-16T11:26:41.243Z,188.03
2022-12-16T11:29:35.129Z,191.40
2022-12-16T11:32:33.862Z,170.67
2022-12-16T11:35:21.352Z,159.87
2022-12-16T11:39:05.370Z,143.57
2022-12-16T11:42:01.118Z,143.80
2022-12-16T11:45:00.388Z,151.23
2022-12-16T11:48:18.022Z,150.40
2022-12-16T11:51:19.090Z,130.90
2022-12-16T11:54:18.492Z,128.07
2022-12-16T11:57:09.399Z,139.03
2022-12-16T11:59:59.889Z,130.37
2022-12-16T12:02:55.196Z,138.63
2022-12-16T12:05:49.969Z,142.33
2022-12-16T12:08:45.810Z,151.20
2022-12-16T12:11:45.011Z,149.07
2022-12-16T12:14:48.557Z,147.73
2022-12-16T12:17:50.956Z,137.53
2022-12-16T12:21:08.495Z,146.70
2022-12-16T12:24:20.338Z,138.43
2022-12-16T12:27:22.339Z,147.83
2022-12-16T12:30:22.868Z,144.63
2022-12-16T12:33:29.124Z,149.00
2022-12-16T12:36:27.496Z,138.17
2022-12-16T12:39:35.836Z,146.93
2022-12-16T12:42:51.897Z,157.33
2022-12-16T12:46:09.906Z,151.67
2022-12-16T12:49:08.844Z,157.33
2022-12-16T12:52:20.362Z,151.37
2022-12-16T12:55:26.288Z,146.97
2022-12-16T12:58:29.212Z,150.47
2022-12-16T13:01:22.868Z,127.03
2022-12-16T13:04:21.720Z,142.27
2022-12-16T13:07:11.994Z,139.27
2022-12-16T13:12:52.429Z,145.23
2022-12-16T13:16:02.921Z,134.03
2022-12-16T13:18:57.965Z,136.07
2022-12-16T13:22:09.635Z,148.30
2022-12-16T13:25:03.004Z,136.27
2022-12-16T13:28:14.113Z,119.30
2022-12-16T13:31:25.883Z,127.47
2022-12-16T13:34:18.489Z,130.50
2022-12-16T13:37:17.853Z,131.70
2022-12-16T13:40:26.077Z,129.10
2022-12-16T13:43:18.193Z,113.83
2022-12-16T13:46:36.671Z,117.13
2022-12-16T13:50:05.612Z,119.73
2022-12-16T13:53:07.254Z,129.07
2022-12-16T13:56:15.509Z,130.03
2022-12-16T13:59:15.933Z,119.80
2022-12-16T14:02:14.580Z,116.73
2022-12-16T14:05:05.587Z,129.80
2022-12-16T14:07:59.188Z,128.73
2022-12-16T14:10:54.109Z,120.13
2022-12-16T14:13:50.647Z,133.23
2022-12-16T14:16:53.924Z,123.70
2022-12-16T14:20:01.292Z,123.70
2022-12-16T14:23:10.877Z,124.07
2022-12-16T14:26:06.691Z,138.30
2022-12-16T14:29:00.030Z,117.30
2022-12-16T14:31:54.817Z,122.97
2022-12-16T14:34:52.056Z,112.07
2022-12-16T14:37:53.604Z,135.97
2022-12-16T14:40:47.920Z,129.60
2022-12-16T14:46:49.673Z,147.43
2022-12-16T14:49:47.969Z,148.53
2022-12-16T14:52:45.958Z,148.87
2022-12-16T14:55:39.057Z,130.73
2022-12-16T14:58:34.890Z,145.70
2022-12-16T15:01:32.475Z,159.87
2022-12-16T15:04:33.094Z,133.87
2022-12-16T15:07:38.869Z,135.20
2022-12-16T15:14:03.706Z,119.60
2022-12-16T15:16:57.328Z,136.57
2022-12-16T15:19:49.292Z,129.83
2022-12-16T15:22:37.313Z,130.30
2022-12-16T15:25:40.198Z,134.07
2022-12-16T15:28:44.197Z,131.50
2022-12-16T15:31:45.307Z,117.33
2022-12-16T15:34:50.222Z,130.30
2022-12-16T15:37:45.055Z,161.38
2022-12-16T15:40:46.843Z,157.43
2022-12-16T15:43:47.127Z,154.68
2022-12-16T15:46:42.641Z,148.77
2022-12-16T15:49:42.193Z,138.77
2022-12-16T15:52:57.155Z,162.03
2022-12-16T15:55:52.007Z,159.70
2022-12-16T15:59:04.585Z,154.70
2022-12-16T16:02:04.762Z,144.13
2022-12-16T16:04:53.762Z,164.18
2022-12-16T16:07:48.361Z,164.93
2022-12-16T16:10:44.067Z,165.50
2022-12-16T16:13:33.950Z,151.73
2022-12-16T16:16:22.816Z,140.10
2022-12-16T16:19:10.576Z,158.25
2022-12-16T16:21:56.914Z,154.48
2022-12-16T16:24:44.238Z,180.00
2022-12-16T16:30:44.175Z,148.10
2022-12-16T16:33:34.890Z,174.15
2022-12-16T16:36:33.375Z,137.00
2022-12-16T16:39:31.396Z,179.75
2022-12-16T16:43:18.607Z,185.52
2022-12-16T16:46:14.306Z,121.53
2022-12-16T16:49:05.729Z,129.17
2022-12-16T16:51:54.996Z,151.98
2022-12-16T16:54:45.780Z,159.75
2022-12-16T16:57:36.332Z,184.85
2022-12-16T17:00:26.756Z,175.93
2022-12-16T17:03:33.028Z,155.93
2022-12-16T17:06:24.713Z,165.40
2022-12-16T17:09:12.590Z,143.13
2022-12-16T17:12:01.620Z,147.50
2022-12-16T17:14:53.045Z,156.52
2022-12-16T17:17:39.525Z,173.13
2022-12-16T17:20:41.023Z,168.63
2022-12-16T17:23:30.448Z,170.03
2022-12-16T17:26:18.041Z,161.60
2022-12-16T17:29:07.917Z,163.38
2022-12-16T17:31:56.889Z,152.33
2022-12-16T17:34:45.231Z,160.85
2022-12-16T17:37:41.583Z,170.50
2022-12-16T17:40:32.817Z,155.27
2022-12-16T17:43:25.569Z,131.77
2022-12-16T17:46:23.051Z,150.07
2022-12-16T17:49:12.133Z,128.80
2022-12-16T17:52:03.000Z,164.27
2022-12-16T17:54:53.076Z,177.30
2022-12-16T17:57:42.318Z,166.40
2022-12-16T18:00:33.478Z,144.43
2022-12-16T18:03:23.653Z,155.02
2022-12-16T18:06:27.740Z,169.18
2022-12-16T18:09:17.186Z,132.07
2022-12-16T18:12:09.007Z,133.17
2022-12-16T18:15:16.791Z,131.53
2022-12-16T18:18:09.076Z,179.90
2022-12-16T18:20:57.243Z,234.10
2022-12-16T18:23:50.293Z,226.63
2022-12-16T18:26:38.406Z,142.40
2022-12-16T18:29:33.534Z,213.95
2022-12-16T18:36:44.193Z,184.30
2022-12-16T18:39:36.966Z,300.65
2022-12-16T18:42:34.455Z,212.20
2022-12-16T18:45:26.710Z,184.10
2022-12-16T18:48:16.647Z,285.80
2022-12-16T18:51:22.131Z,374.13
2022-12-16T18:54:22.986Z,336.23
2022-12-16T18:57:19.006Z,430.45
2022-12-16T19:00:12.179Z,492.35
2022-12-16T19:03:06.927Z,233.77
2022-12-16T19:05:55.409Z,397.52
2022-12-16T19:08:45.450Z,298.27
2022-12-16T19:11:39.857Z,397.75
2022-12-16T19:14:31.680Z,409.92
2022-12-16T19:17:23.188Z,384.58
2022-12-16T19:20:22.527Z,489.00
2022-12-16T19:23:12.773Z,301.97
2022-12-16T19:26:01.078Z,459.88
2022-12-16T19:28:50.089Z,322.77
2022-12-16T19:31:42.854Z,314.63
2022-12-16T19:34:30.284Z,357.55
2022-12-16T19:37:46.434Z,270.80
2022-12-16T19:40:36.412Z,419.55
2022-12-16T19:43:24.782Z,452.57
2022-12-16T19:46:17.289Z,245.33
2022-12-16T19:49:10.552Z,157.00
2022-12-16T19:52:00.076Z,324.23
2022-12-16T19:54:47.510Z,329.30
2022-12-16T19:57:35.222Z,255.13
2022-12-16T20:00:34.666Z,378.77
2022-12-16T20:03:27.527Z,458.35
2022-12-16T20:06:36.856Z,227.10
2022-12-16T20:09:27.533Z,213.90
2022-12-16T20:12:19.464Z,239.07
2022-12-16T20:15:09.244Z,241.27
2022-12-16T20:17:58.187Z,292.37
2022-12-16T20:21:00.240Z,271.40
2022-12-16T20:23:48.767Z,408.08
2022-12-16T20:26:44.136Z,412.07
2022-12-16T20:29:38.106Z,378.73
2022-12-16T20:32:26.899Z,348.50
2022-12-16T20:35:18.928Z,216.07
2022-12-16T20:38:12.262Z,245.10
2022-12-16T20:41:04.095Z,371.85
2022-12-16T20:43:55.319Z,261.07
2022-12-16T20:46:51.790Z,310.33
2022-12-16T20:49:42.855Z,281.33
2022-12-16T20:52:29.988Z,222.63
2022-12-16T20:55:23.033Z,396.58
2022-12-16T20:58:15.011Z,249.73
2022-12-16T21:01:04.581Z,352.83
2022-12-16T21:03:58.147Z,400.40
2022-12-16T21:06:49.584Z,266.57
2022-12-16T21:09:38.287Z,225.67
2022-12-16T21:12:31.450Z,375.27
2022-12-16T21:15:23.904Z,232.77
2022-12-16T21:18:13.557Z,295.25
2022-12-16T21:21:16.223Z,198.13
2022-12-16T21:24:24.762Z,306.60
2022-12-16T21:27:13.114Z,310.50
2022-12-16T21:30:03.818Z,207.88
2022-12-16T21:36:00.245Z,305.40
2022-12-16T21:38:56.132Z,277.80
2022-12-16T21:41:49.118Z,331.27
2022-12-16T21:44:44.382Z,312.50
2022-12-16T21:47:32.994Z,234.07
2022-12-16T21:50:33.841Z,336.48
2022-12-16T21:53:25.181Z,252.93
2022-12-16T21:56:22.141Z,241.20
2022-12-16T21:59:19.250Z,271.92
2022-12-16T22:02:11.442Z,297.10
2022-12-16T22:05:00.143Z,311.20
2022-12-16T22:07:50.536Z,263.63
2022-12-16T22:10:41.170Z,201.43
2022-12-16T22:13:39.987Z,160.87
2022-12-16T22:16:35.587Z,176.10
2022-12-16T22:19:26.808Z,142.87
2022-12-16T22:22:15.105Z,153.37
2022-12-16T22:25:03.152Z,119.53
2022-12-16T22:28:01.659Z,121.67
2022-12-16T22:31:05.492Z,177.47
2022-12-16T22:34:02.394Z,204.73
2022-12-16T22:36:52.777Z,186.90
2022-12-16T22:39:46.749Z,161.70
2022-12-16T22:42:40.252Z,163.57
2022-12-16T22:45:31.336Z,148.10
2022-12-16T22:48:34.420Z,166.17
2022-12-16T22:51:22.928Z,141.87
2022-12-16T22:54:12.292Z,134.20
2022-12-16T22:56:59.477Z,165.50
2022-12-16T22:59:49.311Z,113.73
2022-12-16T23:02:39.243Z,116.00
2022-12-16T23:05:33.675Z,102.73
2022-12-16T23:08:31.640Z,103.90
2022-12-16T23:11:22.944Z,110.63
2022-12-16T23:14:13.629Z,106.63
2022-12-16T23:17:04.949Z,115.67
2022-12-16T23:19:56.633Z,123.90
2022-12-16T23:22:50.213Z,119.27
2022-12-16T23:25:42.361Z,124.43
2022-12-16T23:28:29.145Z,97.07
2022-12-16T23:31:19.144Z,140.17
2022-12-16T23:34:12.799Z,157.97
2022-12-16T23:37:02.487Z,128.97
2022-12-16T23:42:56.288Z,133.07
2022-12-16T23:45:44.908Z,116.17
2022-12-16T23:48:33.188Z,119.17
2022-12-16T23:51:24.738Z,113.43
2022-12-16T23:54:14.548Z,139.00
2022-12-16T23:57:06.098Z,117.73
2022-12-16T23:59:54.273Z,134.93
